Time;durP1;ratioP1;P1;durP2;ratioP2;P2;SDS_P1;SDS_P2;PMS_P1;PMS_P2;Temp;Humidity;BMP_temperature;BMP_pressure;BME280_temperature;BME280_humidity;BME280_pressure;Samples;Min_cycle;Max_cycle;Signal;HPM_P1;HPM_P2
2022/07/24 00:00:14;;;;;;;;;;;;;;;21.21;62.93;97221.34;30001;986;1868;-57
2022/07/24 00:00:45;;;;;;;;;;;;;;;21.21;62.64;97221.34;30001;983;1877;-57
2022/07/24 00:01:16;;;;;;;;;;;;;;;21.20;62.52;97225.25;30001;983;1881;-57
2022/07/24 00:01:47;;;;;;;;;;;;;;;21.20;62.53;97218.91;30001;983;1886;-59
2022/07/24 00:02:19;;;;;;;;;;;;;;;21.19;62.45;97218.13;30001;982;1881;-58
2022/07/24 00:02:52;;;;;;;;;;;;;;;21.18;62.70;97224.78;30001;982;1886;-57
2022/07/24 00:03:23;;;;;;;;;;;;;;;21.17;62.62;97231.47;30001;982;1882;-58
2022/07/24 00:03:54;;;;;;;;;;;;;;;21.16;62.94;97224.34;30001;982;1886;-59
2022/07/24 00:04:25;;;;;;;;;;;;;;;21.16;63.07;97231.81;30001;982;1882;-57
2022/07/24 00:04:56;;;;;;;;;;;;;;;21.15;62.64;97228.25;30001;982;1873;-57
2022/07/24 00:05:27;;;;;;;;;;;;;;;21.15;62.66;97222.72;30001;986;1872;-58
2022/07/24 00:05:58;;;;;;;;;;;;;;;21.15;62.15;97222.72;30001;983;1885;-57
2022/07/24 00:06:29;;;;;;;;;;;;;;;21.14;62.15;97226.66;30001;983;1881;-57
2022/07/24 00:07:01;;;;;;;;;;;;;;;21.15;62.24;97222.72;30001;983;1885;-58
2022/07/24 00:07:34;;;;;;;;;;;;;;;21.13;62.16;97225.06;30001;983;1881;-59
2022/07/24 00:08:08;;;;;;;;;;;;;;;21.14;62.14;97226.66;30001;983;1886;-57
2022/07/24 00:08:42;;;;;;;;;;;;;;;21.14;61.31;97226.66;30001;983;1881;-58
2022/07/24 00:09:13;;;;;;;;;;;;;;;21.14;61.28;97226.66;30001;983;1873;-57
2022/07/24 00:09:43;;;;;;;;;;;;;;;21.14;61.04;97221.13;30001;982;1873;-57
2022/07/24 00:10:14;;;;;;;;;;;;;;;21.14;61.49;97228.63;30001;982;1886;-57
2022/07/24 00:10:45;;;;;;;;;;;;;;;21.14;61.14;97226.66;30001;982;1882;-58
2022/07/24 00:11:16;;;;;;;;;;;;;;;21.14;61.60;97223.12;30001;982;1794;-58
2022/07/24 00:11:47;;;;;;;;;;;;;;;21.13;60.89;97225.06;30001;982;1882;-58
2022/07/24 00:12:18;;;;;;;;;;;;;;;21.14;60.94;97229.41;30001;982;1886;-57
2022/07/24 00:12:49;;;;;;;;;;;;;;;21.15;60.33;97219.97;30001;982;1882;-59
2022/07/24 00:13:20;;;;;;;;;;;;;;;21.17;60.14;97225.13;30001;983;1885;-57
2022/07/24 00:13:51;;;;;;;;;;;;;;;21.17;60.18;97222.38;30001;973;1902;-59
2022/07/24 00:14:22;;;;;;;;;;;;;;;21.16;60.47;97224.34;30001;983;1872;-58
2022/07/24 00:14:54;;;;;;;;;;;;;;;21.16;60.68;97224.34;30001;987;1878;-57
2022/07/24 00:15:24;;;;;;;;;;;;;;;21.17;60.74;97223.19;30001;983;1886;-56
2022/07/24 00:15:58;;;;;;;;;;;;;;;21.17;60.24;97225.13;30001;983;1881;-57
2022/07/24 00:16:29;;;;;;;;;;;;;;;21.17;60.46;97231.47;30001;983;1886;-57
2022/07/24 00:17:00;;;;;;;;;;;;;;;21.17;60.08;97222.38;30001;983;1881;-58
2022/07/24 00:17:31;;;;;;;;;;;;;;;21.17;60.34;97212.16;30001;982;1886;-57
2022/07/24 00:18:02;;;;;;;;;;;;;;;21.16;59.88;97229.84;30001;982;1882;-58
2022/07/24 00:18:33;;;;;;;;;;;;;;;21.18;59.96;97227.53;30001;982;1873;-57
2022/07/24 00:19:04;;;;;;;;;;;;;;;21.17;59.88;97220.41;30001;982;1873;-58
2022/07/24 00:19:35;;;;;;;;;;;;;;;21.18;60.22;97222.03;30001;982;1886;-57
2022/07/24 00:20:07;;;;;;;;;;;;;;;21.18;60.04;97227.53;30001;982;1882;-57
2022/07/24 00:20:38;;;;;;;;;;;;;;;21.18;60.10;97227.53;30001;983;1885;-59
2022/07/24 00:21:09;;;;;;;;;;;;;;;21.18;60.08;97222.03;30001;983;1881;-58
2022/07/24 00:21:39;;;;;;;;;;;;;;;21.18;60.18;97227.53;30001;983;1885;-58
2022/07/24 00:22:10;;;;;;;;;;;;;;;21.19;59.80;97225.59;30001;983;1881;-57
2022/07/24 00:22:41;;;;;;;;;;;;;;;21.18;59.72;97221.22;30001;983;1872;-58
2022/07/24 00:23:12;;;;;;;;;;;;;;;21.17;59.76;97223.19;30001;983;1873;-57
2022/07/24 00:23:43;;;;;;;;;;;;;;;21.17;59.88;97217.66;30001;983;1886;-58
2022/07/24 00:24:14;;;;;;;;;;;;;;;21.17;59.52;97214.09;30001;983;1881;-57
2022/07/24 00:24:44;;;;;;;;;;;;;;;21.18;59.64;97213.75;30001;982;1886;-58
2022/07/24 00:25:15;;;;;;;;;;;;;;;21.18;59.35;97216.50;30001;982;1882;-58
2022/07/24 00:25:46;;;;;;;;;;;;;;;21.19;59.54;97217.31;30001;982;1886;-58
2022/07/24 00:26:17;;;;;;;;;;;;;;;21.18;59.35;97219.25;30001;982;1882;-57
2022/07/24 00:26:48;;;;;;;;;;;;;;;21.18;59.67;97222.03;30001;982;1886;-58
2022/07/24 00:27:19;;;;;;;;;;;;;;;21.16;59.39;97216.06;30001;982;1882;-57
2022/07/24 00:27:50;;;;;;;;;;;;;;;21.17;59.47;97217.66;30001;969;1873;-57
2022/07/24 00:28:21;;;;;;;;;;;;;;;21.17;59.09;97220.41;30001;983;1872;-59
2022/07/24 00:28:52;;;;;;;;;;;;;;;21.17;59.17;97214.91;30001;983;1885;-58
2022/07/24 00:29:23;;;;;;;;;;;;;;;21.18;59.13;97221.22;30001;983;1881;-57
2022/07/24 00:29:54;;;;;;;;;;;;;;;21.18;59.07;97210.19;30001;983;1886;-58
2022/07/24 00:30:24;;;;;;;;;;;;;;;21.19;59.05;97212.59;30001;983;1868;-58
2022/07/24 00:30:56;;;;;;;;;;;;;;;21.19;59.05;97217.31;30001;983;1864;-58
2022/07/24 00:31:27;;;;;;;;;;;;;;;21.18;59.17;97204.66;30001;983;1881;-56
2022/07/24 00:31:58;;;;;;;;;;;;;;;21.18;59.51;97216.50;30001;983;1886;-58
2022/07/24 00:32:28;;;;;;;;;;;;;;;21.18;59.21;97210.19;30001;982;1882;-56
2022/07/24 00:32:59;;;;;;;;;;;;;;;21.18;59.53;97211.00;30001;982;1886;-57
2022/07/24 00:33:30;;;;;;;;;;;;;;;21.17;59.03;97203.87;30001;982;1882;-58
2022/07/24 00:34:01;;;;;;;;;;;;;;;21.19;59.11;97214.56;30001;982;1886;-58
2022/07/24 00:34:32;;;;;;;;;;;;;;;21.18;59.07;97211.00;30001;982;1882;-57
2022/07/24 00:35:03;;;;;;;;;;;;;;;21.19;59.24;97215.34;30001;983;1885;-59
2022/07/24 00:35:35;;;;;;;;;;;;;;;21.18;59.26;97216.50;30001;983;1881;-57
2022/07/24 00:36:06;;;;;;;;;;;;;;;21.18;59.30;97208.22;30001;983;1872;-58
2022/07/24 00:36:37;;;;;;;;;;;;;;;21.18;59.52;97210.19;30001;983;1872;-57
2022/07/24 00:37:08;;;;;;;;;;;;;;;21.17;59.60;97209.38;30001;983;1885;-58
2022/07/24 00:37:39;;;;;;;;;;;;;;;21.17;59.40;97208.59;30001;983;1881;-58
2022/07/24 00:38:10;;;;;;;;;;;;;;;21.17;59.47;97208.59;30001;983;1886;-58
2022/07/24 00:38:40;;;;;;;;;;;;;;;21.16;59.27;97213.28;30001;983;1881;-57
2022/07/24 00:39:11;;;;;;;;;;;;;;;21.16;59.34;97216.06;30001;983;1886;-57
2022/07/24 00:39:42;;;;;;;;;;;;;;;21.14;59.79;97212.06;30001;983;1881;-57
2022/07/24 00:40:15;;;;;;;;;;;;;;;21.13;59.66;97214.03;30001;982;1886;-58
2022/07/24 00:40:47;;;;;;;;;;;;;;;21.12;59.79;97212.44;30001;982;1882;-57
2022/07/24 00:41:18;;;;;;;;;;;;;;;21.10;60.08;97209.22;30001;982;1873;-58
2022/07/24 00:41:52;;;;;;;;;;;;;;;21.10;59.81;97209.22;30001;982;1830;-58
2022/07/24 00:42:22;;;;;;;;;;;;;;;21.10;59.71;97208.41;30001;983;1885;-57
2022/07/24 00:42:54;;;;;;;;;;;;;;;21.07;59.98;97207.97;30001;983;1881;-58
2022/07/24 00:43:24;;;;;;;;;;;;;;;21.05;60.22;97207.50;30001;983;1885;-58
2022/07/24 00:44:10;;;;;;;;;;;;;;;21.05;60.38;97212.22;30001;975;1899;-59
2022/07/24 00:44:41;;;;;;;;;;;;;;;21.02;60.05;97212.94;30001;983;1885;-57
2022/07/24 00:45:13;;;;;;;;;;;;;;;21.02;60.36;97212.94;30001;983;1881;-58
2022/07/24 00:45:44;;;;;;;;;;;;;;;21.01;60.42;97211.34;30001;983;1873;-57
2022/07/24 00:46:18;;;;;;;;;;;;;;;20.99;60.74;97208.91;30001;983;1872;-57
2022/07/24 00:46:49;;;;;;;;;;;;;;;20.97;61.21;97207.66;30001;983;1886;-57
2022/07/24 00:47:19;;;;;;;;;;;;;;;20.95;61.23;97207.22;30001;983;1881;-58
2022/07/24 00:47:51;;;;;;;;;;;;;;;20.94;60.78;97211.94;30001;982;1886;-57
2022/07/24 00:48:22;;;;;;;;;;;;;;;20.94;61.13;97216.66;30001;982;1882;-58
2022/07/24 00:48:52;;;;;;;;;;;;;;;20.93;60.69;97220.56;30001;982;1873;-57
2022/07/24 00:49:23;;;;;;;;;;;;;;;20.91;61.05;97214.59;30001;982;1873;-58
2022/07/24 00:49:54;;;;;;;;;;;;;;;20.90;61.04;97216.53;30001;982;1886;-57
2022/07/24 00:50:25;;;;;;;;;;;;;;;20.90;60.99;97213.78;30001;983;1881;-57
2022/07/24 00:50:57;;;;;;;;;;;;;;;20.89;61.19;97214.13;30001;983;1872;-59
2022/07/24 00:51:27;;;;;;;;;;;;;;;20.89;61.31;97209.44;30001;983;1872;-57
2022/07/24 00:51:58;;;;;;;;;;;;;;;20.89;60.94;97225.16;30001;983;1885;-56
2022/07/24 00:52:29;;;;;;;;;;;;;;;20.87;61.57;97211.72;30001;983;1881;-57
2022/07/24 00:53:00;;;;;;;;;;;;;;;20.87;61.75;97216.44;30001;983;1886;-60
2022/07/24 00:53:31;;;;;;;;;;;;;;;20.84;61.75;97212.44;30001;983;1881;-58
2022/07/24 00:54:05;;;;;;;;;;;;;;;20.83;61.78;97215.53;30001;983;1873;-57
2022/07/24 00:54:36;;;;;;;;;;;;;;;20.83;61.61;97215.53;30001;983;1873;-57
2022/07/24 00:55:08;;;;;;;;;;;;;;;20.81;62.04;97217.84;30001;982;1873;-59
2022/07/24 00:55:39;;;;;;;;;;;;;;;20.80;61.70;97216.25;30001;982;1873;-59
2022/07/24 00:56:10;;;;;;;;;;;;;;;20.80;61.51;97222.56;30001;982;1886;-59
2022/07/24 00:56:42;;;;;;;;;;;;;;;20.79;61.47;97220.19;30001;982;1869;-55
2022/07/24 00:57:13;;;;;;;;;;;;;;;20.78;62.16;97213.06;30001;982;1877;-58
2022/07/24 00:57:45;;;;;;;;;;;;;;;20.78;61.69;97219.37;30001;983;1868;-55
2022/07/24 00:58:16;;;;;;;;;;;;;;;20.78;61.63;97213.06;30001;983;1876;-55
2022/07/24 00:58:47;;;;;;;;;;;;;;;20.77;61.99;97217.78;30001;983;1881;-56
2022/07/24 00:59:19;;;;;;;;;;;;;;;20.76;61.52;97212.59;30001;983;1885;-56
2022/07/24 00:59:50;;;;;;;;;;;;;;;20.76;61.50;97220.88;30001;983;1881;-57
2022/07/24 01:00:21;;;;;;;;;;;;;;;20.73;61.72;97212.16;30001;983;1886;-57
2022/07/24 01:00:54;;;;;;;;;;;;;;;20.73;61.93;97211.34;30001;983;1881;-58
2022/07/24 01:01:25;;;;;;;;;;;;;;;20.73;61.85;97222.38;30001;983;1886;-57
2022/07/24 01:01:56;;;;;;;;;;;;;;;20.72;61.49;97216.06;30001;983;1868;-59
2022/07/24 01:02:27;;;;;;;;;;;;;;;20.71;61.63;97208.94;30001;983;1877;-57
2022/07/24 01:03:01;;;;;;;;;;;;;;;20.70;61.78;97218.37;30001;982;1868;-56
2022/07/24 01:03:32;;;;;;;;;;;;;;;20.69;62.05;97216.75;30001;982;1877;-58
2022/07/24 01:04:04;;;;;;;;;;;;;;;20.68;61.92;97215.16;30001;982;1882;-56
2022/07/24 01:04:35;;;;;;;;;;;;;;;20.67;61.82;97215.50;30001;982;1886;-57
2022/07/24 01:05:07;;;;;;;;;;;;;;;20.65;62.49;97215.84;30001;983;1881;-56
2022/07/24 01:05:37;;;;;;;;;;;;;;;20.64;61.99;97214.25;30001;983;1885;-57
2022/07/24 01:06:08;;;;;;;;;;;;;;;20.62;62.38;97211.03;30001;983;1881;-57
2022/07/24 01:06:40;;;;;;;;;;;;;;;20.62;61.99;97211.03;30001;983;1885;-58
2022/07/24 01:07:11;;;;;;;;;;;;;;;20.61;62.30;97214.94;30001;983;1881;-57
2022/07/24 01:07:42;;;;;;;;;;;;;;;20.62;62.12;97213.00;30001;983;1886;-56
2022/07/24 01:08:13;;;;;;;;;;;;;;;20.62;61.90;97211.03;30001;983;1868;-56
2022/07/24 01:08:44;;;;;;;;;;;;;;;20.62;62.05;97211.03;30001;983;1877;-56
2022/07/24 01:09:15;;;;;;;;;;;;;;;20.62;61.88;97211.03;30001;982;1881;-57
2022/07/24 01:09:47;;;;;;;;;;;;;;;20.63;61.70;97209.09;30001;982;1886;-58
2022/07/24 01:10:18;;;;;;;;;;;;;;;20.62;62.15;97210.22;30001;982;1881;-57
2022/07/24 01:10:48;;;;;;;;;;;;;;;20.63;61.87;97218.16;30001;982;1886;-57
2022/07/24 01:11:20;;;;;;;;;;;;;;;20.63;61.67;97209.09;30001;982;1881;-57
2022/07/24 01:11:52;;;;;;;;;;;;;;;20.64;61.43;97211.50;30001;982;1886;-57
2022/07/24 01:12:23;;;;;;;;;;;;;;;20.63;62.35;97218.16;30001;982;1882;-57
2022/07/24 01:12:55;;;;;;;;;;;;;;;20.64;61.97;97213.44;30001;983;1872;-56
2022/07/24 01:13:26;;;;;;;;;;;;;;;20.63;62.15;97211.84;30001;983;1872;-57
2022/07/24 01:13:57;;;;;;;;;;;;;;;20.61;61.80;97217.69;30001;983;1885;-57
2022/07/24 01:14:31;;;;;;;;;;;;;;;20.60;61.81;97213.34;30001;983;1881;-57
2022/07/24 01:15:03;;;;;;;;;;;;;;;20.61;61.37;97214.94;30001;983;1885;-56
2022/07/24 01:15:34;;;;;;;;;;;;;;;20.63;61.40;97211.84;30001;983;1868;-56
2022/07/24 01:16:05;;;;;;;;;;;;;;;20.64;61.14;97203.22;30001;983;1877;-57
2022/07/24 01:16:36;;;;;;;;;;;;;;;20.64;61.31;97210.69;30001;983;1881;-57
2022/07/24 01:17:08;;;;;;;;;;;;;;;20.67;60.96;97207.22;30001;982;1886;-57
2022/07/24 01:17:42;;;;;;;;;;;;;;;20.66;60.68;97206.44;30001;982;1868;-58
2022/07/24 01:18:13;;;;;;;;;;;;;;;20.68;61.05;97203.31;30001;982;1877;-58
2022/07/24 01:18:45;;;;;;;;;;;;;;;20.66;61.37;97206.44;30001;966;1898;-56
2022/07/24 01:19:16;;;;;;;;;;;;;;;20.66;61.25;97206.44;30001;982;1886;-59
2022/07/24 01:19:47;;;;;;;;;;;;;;;20.67;60.75;97210.00;30001;982;1882;-57
2022/07/24 01:20:18;;;;;;;;;;;;;;;20.68;60.94;97209.63;30001;983;1872;-57
2022/07/24 01:20:50;;;;;;;;;;;;;;;20.69;60.57;97207.69;30001;983;1859;-56
2022/07/24 01:21:21;;;;;;;;;;;;;;;20.69;61.10;97207.69;30001;983;1885;-56
2022/07/24 01:21:53;;;;;;;;;;;;;;;20.67;61.06;97205.28;30001;983;1881;-56
2022/07/24 01:22:25;;;;;;;;;;;;;;;20.69;60.96;97215.97;30001;983;1886;-57
2022/07/24 01:22:56;;;;;;;;;;;;;;;20.69;60.99;97205.72;30001;983;1881;-56
2022/07/24 01:23:27;;;;;;;;;;;;;;;20.66;61.12;97216.66;30001;983;1886;-57
2022/07/24 01:23:58;;;;;;;;;;;;;;;20.66;60.75;97206.44;30001;983;1881;-56
2022/07/24 01:24:29;;;;;;;;;;;;;;;20.66;60.77;97200.91;30001;982;1886;-57
2022/07/24 01:25:00;;;;;;;;;;;;;;;20.66;60.31;97209.19;30001;982;1882;-58
2022/07/24 01:25:31;;;;;;;;;;;;;;;20.67;60.59;97202.53;30001;982;1886;-57
2022/07/24 01:26:02;;;;;;;;;;;;;;;20.68;60.32;97208.84;30001;982;1868;-57
2022/07/24 01:26:33;;;;;;;;;;;;;;;20.65;61.00;97204.81;30001;982;1877;-57
2022/07/24 01:27:04;;;;;;;;;;;;;;;20.63;60.76;97207.12;30001;983;1881;-56
2022/07/24 01:27:34;;;;;;;;;;;;;;;20.63;61.13;97209.88;30001;983;1885;-57
2022/07/24 01:28:05;;;;;;;;;;;;;;;20.62;61.39;97204.72;30001;983;1881;-58
2022/07/24 01:28:37;;;;;;;;;;;;;;;20.59;61.68;97205.41;30001;983;1885;-58
2022/07/24 01:29:08;;;;;;;;;;;;;;;20.58;61.12;97204.63;30001;983;1881;-58
2022/07/24 01:29:41;;;;;;;;;;;;;;;20.59;61.17;97211.72;30001;983;1872;-56
2022/07/24 01:30:12;;;;;;;;;;;;;;;20.60;61.53;97212.53;30001;983;1873;-57
2022/07/24 01:30:43;;;;;;;;;;;;;;;20.59;61.16;97206.22;30001;983;1886;-58
2022/07/24 01:31:17;;;;;;;;;;;;;;;20.60;61.68;97204.28;30001;983;1881;-58
2022/07/24 01:31:47;;;;;;;;;;;;;;;20.59;61.42;97205.41;30001;983;1886;-57
2022/07/24 01:32:18;;;;;;;;;;;;;;;20.59;61.78;97205.41;30001;982;1882;-57
2022/07/24 01:32:49;;;;;;;;;;;;;;;20.60;61.68;97207.81;30001;982;1886;-57
2022/07/24 01:33:20;;;;;;;;;;;;;;;20.59;61.57;97211.72;30001;982;1882;-58
2022/07/24 01:33:51;;;;;;;;;;;;;;;20.60;61.30;97205.06;30001;982;1886;-57
2022/07/24 01:34:22;;;;;;;;;;;;;;;20.60;61.08;97207.81;30001;982;1869;-58
2022/07/24 01:34:52;;;;;;;;;;;;;;;20.60;60.96;97202.31;30001;983;1876;-58
2022/07/24 01:35:24;;;;;;;;;;;;;;;20.60;61.03;97201.50;30001;983;1881;-58
2022/07/24 01:35:55;;;;;;;;;;;;;;;20.61;61.29;97203.13;30001;983;1885;-57
2022/07/24 01:36:27;;;;;;;;;;;;;;;20.59;61.20;97206.22;30001;983;1881;-57
2022/07/24 01:36:57;;;;;;;;;;;;;;;20.59;60.83;97203.47;30001;983;1885;-58
2022/07/24 01:37:29;;;;;;;;;;;;;;;20.60;61.12;97207.03;30001;983;1881;-56
2022/07/24 01:37:59;;;;;;;;;;;;;;;20.59;61.30;97205.41;30001;983;1886;-56
2022/07/24 01:38:32;;;;;;;;;;;;;;;20.58;61.27;97204.63;30001;983;1868;-56
2022/07/24 01:39:03;;;;;;;;;;;;;;;20.58;61.16;97209.31;30001;983;1877;-57
2022/07/24 01:39:34;;;;;;;;;;;;;;;20.57;61.22;97208.53;30001;982;1881;-60
2022/07/24 01:40:05;;;;;;;;;;;;;;;20.57;61.05;97207.72;30001;982;1886;-56
2022/07/24 01:40:36;;;;;;;;;;;;;;;20.56;61.10;97201.41;30001;982;1868;-59
2022/07/24 01:41:07;;;;;;;;;;;;;;;20.57;60.95;97207.72;30001;982;1877;-58
2022/07/24 01:41:38;;;;;;;;;;;;;;;20.56;61.32;97212.44;30001;982;1882;-60
2022/07/24 01:42:08;;;;;;;;;;;;;;;20.55;61.36;97210.81;30001;983;1885;-58
2022/07/24 01:42:39;;;;;;;;;;;;;;;20.54;61.50;97211.97;30001;983;1881;-59
2022/07/24 01:43:11;;;;;;;;;;;;;;;20.54;61.44;97214.72;30001;983;1885;-59
2022/07/24 01:43:41;;;;;;;;;;;;;;;20.54;61.07;97209.22;30001;983;1868;-58
2022/07/24 01:44:12;;;;;;;;;;;;;;;20.53;60.99;97213.13;30001;983;1877;-56
2022/07/24 01:44:43;;;;;;;;;;;;;;;20.53;60.83;97207.62;30001;983;1868;-58
2022/07/24 01:45:15;;;;;;;;;;;;;;;20.53;60.95;97217.84;30001;983;1864;-56
2022/07/24 01:45:46;;;;;;;;;;;;;;;20.52;60.96;97213.47;30001;983;1881;-58
2022/07/24 01:46:16;;;;;;;;;;;;;;;20.52;60.99;97211.53;30001;983;1886;-58
2022/07/24 01:46:47;;;;;;;;;;;;;;;20.49;62.37;97216.94;30001;983;1881;-58
2022/07/24 01:47:18;;;;;;;;;;;;;;;20.47;61.66;97210.97;30001;982;1886;-58
2022/07/24 01:47:49;;;;;;;;;;;;;;;20.45;61.92;97211.31;30001;982;1882;-57
2022/07/24 01:48:20;;;;;;;;;;;;;;;20.45;61.57;97210.50;30001;982;1886;-58
2022/07/24 01:48:53;;;;;;;;;;;;;;;20.44;61.69;97208.94;30001;982;1869;-60
2022/07/24 01:49:23;;;;;;;;;;;;;;;20.43;61.58;97208.12;30001;982;1877;-58
2022/07/24 01:49:54;;;;;;;;;;;;;;;20.43;61.41;97208.12;30001;983;1881;-57
2022/07/24 01:50:25;;;;;;;;;;;;;;;20.43;60.74;97208.12;30001;983;1885;-59
2022/07/24 01:50:56;;;;;;;;;;;;;;;20.41;62.54;97207.66;30001;983;1868;-59
2022/07/24 01:51:29;;;;;;;;;;;;;;;20.37;61.74;97215.00;30001;983;1877;-57
2022/07/24 01:52:00;;;;;;;;;;;;;;;20.33;62.18;97203.87;30001;983;1868;-57
2022/07/24 01:52:31;;;;;;;;;;;;;;;20.32;61.82;97212.47;30001;983;1877;-59
2022/07/24 01:53:02;;;;;;;;;;;;;;;20.29;62.18;97210.41;30001;983;1881;-57
2022/07/24 01:53:33;;;;;;;;;;;;;;;20.28;62.07;97206.84;30001;983;1886;-59
2022/07/24 01:54:04;;;;;;;;;;;;;;;20.27;62.76;97209.97;30001;983;1881;-57
2022/07/24 01:54:35;;;;;;;;;;;;;;;20.25;62.32;97212.25;30001;982;1873;-57
2022/07/24 01:55:07;;;;;;;;;;;;;;;20.24;62.67;97205.16;30001;982;1873;-57
2022/07/24 01:55:38;;;;;;;;;;;;;;;20.24;62.23;97210.66;30001;982;1886;-57
2022/07/24 01:56:09;;;;;;;;;;;;;;;20.25;62.27;97206.75;30001;982;1869;-60
2022/07/24 01:56:40;;;;;;;;;;;;;;;20.25;62.54;97201.25;30001;982;1877;-57
2022/07/24 01:57:11;;;;;;;;;;;;;;;20.26;62.47;97208.34;30001;983;1881;-57
2022/07/24 01:57:42;;;;;;;;;;;;;;;20.25;62.26;97212.25;30001;983;1885;-57
2022/07/24 01:58:13;;;;;;;;;;;;;;;20.24;62.99;97210.66;30001;983;1881;-60
2022/07/24 01:58:44;;;;;;;;;;;;;;;20.24;62.89;97210.66;30001;983;1885;-56
2022/07/24 01:59:14;;;;;;;;;;;;;;;20.23;62.95;97209.06;30001;983;1881;-58
2022/07/24 01:59:45;;;;;;;;;;;;;;;20.22;63.18;97207.44;30001;983;1886;-58
2022/07/24 02:00:17;;;;;;;;;;;;;;;20.22;63.04;97201.94;30001;983;1881;-57
2022/07/24 02:00:48;;;;;;;;;;;;;;;20.22;62.90;97207.44;30001;983;1873;-57
2022/07/24 02:01:20;;;;;;;;;;;;;;;20.22;62.84;97210.19;30001;982;1872;-58
2022/07/24 02:01:51;;;;;;;;;;;;;;;20.22;62.55;97212.94;30001;982;1886;-56
2022/07/24 02:02:21;;;;;;;;;;;;;;;20.22;62.58;97212.94;30001;982;1882;-57
2022/07/24 02:02:52;;;;;;;;;;;;;;;20.21;62.32;97208.59;30001;982;1886;-57
2022/07/24 02:03:23;;;;;;;;;;;;;;;20.19;62.28;97208.94;30001;982;1882;-56
2022/07/24 02:03:54;;;;;;;;;;;;;;;20.19;62.21;97211.69;30001;982;1886;-58
2022/07/24 02:04:25;;;;;;;;;;;;;;;20.18;62.29;97212.03;30001;982;1882;-57
2022/07/24 02:04:55;;;;;;;;;;;;;;;20.18;62.26;97212.03;30001;983;1872;-58
2022/07/24 02:05:26;;;;;;;;;;;;;;;20.18;62.42;97214.78;30001;983;1872;-58
2022/07/24 02:05:57;;;;;;;;;;;;;;;20.18;61.92;97203.78;30001;983;1885;-58
2022/07/24 02:06:29;;;;;;;;;;;;;;;20.18;62.59;97203.78;30001;983;1881;-57
2022/07/24 02:07:00;;;;;;;;;;;;;;;20.15;62.81;97207.22;30001;983;1885;-57
2022/07/24 02:07:30;;;;;;;;;;;;;;;20.13;62.55;97204.00;30001;983;1881;-57
2022/07/24 02:08:02;;;;;;;;;;;;;;;20.10;62.56;97204.72;30001;983;1886;-58
2022/07/24 02:08:32;;;;;;;;;;;;;;;20.10;62.32;97204.72;30001;983;1881;-57
2022/07/24 02:09:03;;;;;;;;;;;;;;;20.10;62.20;97204.72;30001;982;1886;-58
2022/07/24 02:09:34;;;;;;;;;;;;;;;20.10;62.25;97205.50;30001;982;1881;-57
2022/07/24 02:10:05;;;;;;;;;;;;;;;20.11;61.83;97200.78;30001;982;1873;-58
2022/07/24 02:10:36;;;;;;;;;;;;;;;20.12;61.76;97202.41;30001;982;1873;-57
2022/07/24 02:11:07;;;;;;;;;;;;;;;20.11;62.38;97204.34;30001;982;1886;-57
2022/07/24 02:11:38;;;;;;;;;;;;;;;20.10;62.05;97199.22;30001;982;1882;-58
2022/07/24 02:12:12;;;;;;;;;;;;;;;20.08;62.30;97200.38;30001;983;1885;-57
2022/07/24 02:12:43;;;;;;;;;;;;;;;20.06;62.42;97205.41;30001;983;1805;-57
2022/07/24 02:13:14;;;;;;;;;;;;;;;20.06;62.17;97205.41;30001;983;1885;-57
2022/07/24 02:13:45;;;;;;;;;;;;;;;20.04;62.34;97202.22;30001;983;1881;-57
2022/07/24 02:14:16;;;;;;;;;;;;;;;20.04;62.36;97199.44;30001;983;1885;-57
2022/07/24 02:14:46;;;;;;;;;;;;;;;20.05;62.43;97198.31;30001;983;1881;-57
2022/07/24 02:15:17;;;;;;;;;;;;;;;20.06;62.56;97201.88;30001;983;1873;-56
2022/07/24 02:15:48;;;;;;;;;;;;;;;20.05;62.02;97195.56;30001;983;1873;-57
2022/07/24 02:16:19;;;;;;;;;;;;;;;20.05;61.98;97198.31;30001;982;1886;-57
2022/07/24 02:16:50;;;;;;;;;;;;;;;20.04;63.26;97196.69;30001;982;1882;-57
2022/07/24 02:17:20;;;;;;;;;;;;;;;20.03;63.15;97199.81;30001;982;1794;-58
2022/07/24 02:17:53;;;;;;;;;;;;;;;20.01;62.54;97202.91;30001;982;1882;-57
2022/07/24 02:18:24;;;;;;;;;;;;;;;20.01;62.55;97200.16;30001;982;1886;-57
2022/07/24 02:18:54;;;;;;;;;;;;;;;20.02;62.25;97195.44;30001;982;1882;-58
2022/07/24 02:19:25;;;;;;;;;;;;;;;20.03;62.11;97200.59;30001;981;1886;-57
2022/07/24 02:19:56;;;;;;;;;;;;;;;20.03;62.01;97195.09;30001;983;1868;-57
2022/07/24 02:20:27;;;;;;;;;;;;;;;20.03;62.04;97200.59;30001;983;1863;-57
2022/07/24 02:20:59;;;;;;;;;;;;;;;20.03;61.76;97195.09;30001;983;1881;-56
2022/07/24 02:21:30;;;;;;;;;;;;;;;20.03;62.08;97200.59;30001;983;1886;-57
2022/07/24 02:22:00;;;;;;;;;;;;;;;20.02;62.11;97196.25;30001;983;1881;-57
2022/07/24 02:22:33;;;;;;;;;;;;;;;20.03;62.00;97200.59;30001;983;1886;-58
2022/07/24 02:23:04;;;;;;;;;;;;;;;20.02;62.11;97199.00;30001;983;1881;-58
2022/07/24 02:23:36;;;;;;;;;;;;;;;20.04;61.93;97201.41;30001;983;1886;-57
2022/07/24 02:24:07;;;;;;;;;;;;;;;20.02;61.74;97201.75;30001;982;1882;-58
2022/07/24 02:24:38;;;;;;;;;;;;;;;20.03;61.76;97206.09;30001;982;1873;-57
2022/07/24 02:25:10;;;;;;;;;;;;;;;20.00;61.98;97195.78;30001;982;1873;-58
2022/07/24 02:25:41;;;;;;;;;;;;;;;20.00;62.05;97201.28;30001;982;1886;-57
2022/07/24 02:26:12;;;;;;;;;;;;;;;20.00;61.99;97189.47;30001;982;1882;-57
2022/07/24 02:26:43;;;;;;;;;;;;;;;20.01;61.58;97199.34;30001;968;1811;-57
2022/07/24 02:27:14;;;;;;;;;;;;;;;20.00;61.49;97201.28;30001;983;1881;-59
2022/07/24 02:27:45;;;;;;;;;;;;;;;20.02;61.43;97198.19;30001;983;1885;-58
2022/07/24 02:28:17;;;;;;;;;;;;;;;20.01;61.26;97197.38;30001;983;1881;-58
2022/07/24 02:28:48;;;;;;;;;;;;;;;20.03;61.53;97199.81;30001;983;1872;-57
2022/07/24 02:29:19;;;;;;;;;;;;;;;20.01;61.47;97202.91;30001;983;1872;-56
2022/07/24 02:29:50;;;;;;;;;;;;;;;20.01;61.39;97208.41;30001;983;1886;-58
2022/07/24 02:30:22;;;;;;;;;;;;;;;20.01;61.70;97202.09;30001;983;1881;-57
2022/07/24 02:30:54;;;;;;;;;;;;;;;20.01;61.83;97202.91;30001;983;1886;-57
2022/07/24 02:31:25;;;;;;;;;;;;;;;20.01;62.75;97197.38;30001;982;1882;-58
2022/07/24 02:31:55;;;;;;;;;;;;;;;19.98;62.15;97198.06;30001;982;1886;-59
2022/07/24 02:32:26;;;;;;;;;;;;;;;19.96;62.11;97203.13;30001;982;1881;-59
2022/07/24 02:32:58;;;;;;;;;;;;;;;19.96;62.65;97203.13;30001;982;1886;-57
2022/07/24 02:33:28;;;;;;;;;;;;;;;19.94;62.87;97201.88;30001;982;1882;-56
2022/07/24 02:34:03;;;;;;;;;;;;;;;19.92;62.94;97199.47;30001;983;1872;-58
2022/07/24 02:34:34;;;;;;;;;;;;;;;19.90;62.81;97199.00;30001;983;1872;-57
2022/07/24 02:35:06;;;;;;;;;;;;;;;19.90;62.60;97200.94;30001;983;1885;-58
2022/07/24 02:35:38;;;;;;;;;;;;;;;19.88;63.50;97204.06;30001;983;1881;-58
2022/07/24 02:36:09;;;;;;;;;;;;;;;19.89;63.24;97200.16;30001;983;1885;-57
2022/07/24 02:36:40;;;;;;;;;;;;;;;19.90;63.33;97203.69;30001;983;1881;-59
2022/07/24 02:37:11;;;;;;;;;;;;;;;19.90;63.26;97201.75;30001;983;1886;-55
2022/07/24 02:37:43;;;;;;;;;;;;;;;19.91;63.29;97195.09;30001;983;1881;-59
2022/07/24 02:38:14;;;;;;;;;;;;;;;19.93;63.12;97205.78;30001;983;1886;-58
2022/07/24 02:38:45;;;;;;;;;;;;;;;19.95;63.14;97198.78;30001;973;1899;-58
2022/07/24 02:39:19;;;;;;;;;;;;;;;19.95;62.91;97193.25;30001;982;1873;-58
2022/07/24 02:39:50;;;;;;;;;;;;;;;19.95;63.12;97201.53;30001;982;1873;-57
2022/07/24 02:40:21;;;;;;;;;;;;;;;19.94;63.07;97201.88;30001;982;1886;-57
2022/07/24 02:40:52;;;;;;;;;;;;;;;19.92;63.22;97198.66;30001;982;1882;-57
2022/07/24 02:41:23;;;;;;;;;;;;;;;19.91;63.25;97192.34;30001;982;1886;-59
2022/07/24 02:41:54;;;;;;;;;;;;;;;19.91;63.14;97202.56;30001;983;1868;-59
2022/07/24 02:42:25;;;;;;;;;;;;;;;19.90;63.67;97204.50;30001;983;1877;-57
2022/07/24 02:42:56;;;;;;;;;;;;;;;19.90;63.32;97204.50;30001;983;1881;-60
2022/07/24 02:43:27;;;;;;;;;;;;;;;19.88;64.24;97198.53;30001;983;1885;-57
2022/07/24 02:43:58;;;;;;;;;;;;;;;19.85;65.06;97201.97;30001;983;1881;-57
2022/07/24 02:44:28;;;;;;;;;;;;;;;19.83;64.51;97212.53;30001;983;1886;-57
2022/07/24 02:45:00;;;;;;;;;;;;;;;19.80;64.42;97209.66;30001;983;1881;-59
2022/07/24 02:45:30;;;;;;;;;;;;;;;19.79;64.04;97199.81;30001;983;1886;-57
2022/07/24 02:46:02;;;;;;;;;;;;;;;19.78;64.07;97204.50;30001;983;1868;-59
2022/07/24 02:46:33;;;;;;;;;;;;;;;19.79;64.28;97200.59;30001;982;1779;-57
2022/07/24 02:47:04;;;;;;;;;;;;;;;19.79;64.40;97206.09;30001;982;1882;-57